Time;durP1;ratioP1;P1;durP2;ratioP2;P2;SDS_P1;SDS_P2;PMS_P1;PMS_P2;Temp;Humidity;BMP_temperature;BMP_pressure;BME280_temperature;BME280_humidity;BME280_pressure;Samples;Min_cycle;Max_cycle;Signal;HPM_P1;HPM_P2
2022/05/16 00:01:44;;;;;;;12.27;6.60;;;;;;;;;;5093010;28;20427;-75
2022/05/16 00:04:10;;;;;;;12.75;7.00;;;;;;;;;;5103064;28;20499;-74
2022/05/16 00:06:37;;;;;;;11.82;6.68;;;;;;;;;;5099008;28;20040;-74
2022/05/16 00:09:03;;;;;;;11.68;6.47;;;;;;;;;;5094856;28;20048;-74
2022/05/16 00:11:29;;;;;;;12.55;6.72;;;;;;;;;;5105978;28;20054;-74
2022/05/16 00:13:56;;;;;;;13.80;8.00;;;;;;;;;;5094770;28;20126;-74
2022/05/16 00:16:23;;;;;;;13.10;7.72;;;;;;;;;;5099318;28;20050;-74
2022/05/16 00:18:49;;;;;;;12.25;7.05;;;;;;;;;;5088845;28;20498;-74
2022/05/16 00:21:16;;;;;;;13.65;7.55;;;;;;;;;;5105654;28;20345;-74
2022/05/16 00:23:42;;;;;;;13.20;6.90;;;;;;;;;;5092823;28;20360;-74
2022/05/16 00:26:08;;;;;;;13.20;7.07;;;;;;;;;;5100286;28;20036;-74
2022/05/16 00:28:34;;;;;;;10.80;6.63;;;;;;;;;;5084523;28;20054;-74
2022/05/16 00:31:00;;;;;;;13.48;7.32;;;;;;;;;;5092095;28;20040;-74
2022/05/16 00:33:26;;;;;;;13.38;7.07;;;;;;;;;;5104787;28;20040;-74
2022/05/16 00:35:52;;;;;;;13.65;6.93;;;;;;;;;;5096582;28;20055;-75
2022/05/16 00:38:19;;;;;;;12.55;6.72;;;;;;;;;;5096125;28;20087;-74
2022/05/16 00:40:45;;;;;;;13.00;6.93;;;;;;;;;;5105494;28;20349;-74
2022/05/16 00:43:12;;;;;;;11.27;7.07;;;;;;;;;;5092440;28;20184;-74
2022/05/16 00:45:39;;;;;;;11.38;6.68;;;;;;;;;;5106686;28;20040;-74
2022/05/16 00:48:05;;;;;;;9.95;6.88;;;;;;;;;;5096504;28;20048;-74
2022/05/16 00:50:32;;;;;;;11.07;6.43;;;;;;;;;;5103869;28;20079;-73
2022/05/16 00:53:02;;;;;;;12.10;6.60;;;;;;;;;;5074867;28;20063;-74
2022/05/16 00:55:30;;;;;;;12.07;6.85;;;;;;;;;;5100525;28;20040;-74
2022/05/16 00:57:58;;;;;;;12.10;7.32;;;;;;;;;;5099962;28;20223;-74
2022/05/16 01:00:27;;;;;;;12.95;7.20;;;;;;;;;;5092404;28;20039;-74
2022/05/16 01:05:39;;;;;;;12.35;6.65;;;;;;;;;;5098178;28;20495;-74
2022/05/16 01:08:07;;;;;;;12.18;6.55;;;;;;;;;;5085564;28;20035;-74
2022/05/16 01:10:33;;;;;;;12.00;6.70;;;;;;;;;;5091663;28;20234;-74
2022/05/16 01:13:01;;;;;;;10.85;6.65;;;;;;;;;;5102214;28;20044;-74
2022/05/16 01:15:30;;;;;;;12.15;6.93;;;;;;;;;;5098302;28;20047;-74
2022/05/16 01:17:57;;;;;;;9.98;6.32;;;;;;;;;;5093162;28;20081;-74
2022/05/16 01:20:23;;;;;;;11.75;6.88;;;;;;;;;;5074190;28;20040;-74
2022/05/16 01:22:50;;;;;;;10.30;6.50;;;;;;;;;;5101972;28;20128;-73
2022/05/16 01:25:20;;;;;;;10.75;6.47;;;;;;;;;;5097944;28;20067;-74
2022/05/16 01:27:49;;;;;;;12.27;6.22;;;;;;;;;;5093176;28;20084;-74
2022/05/16 01:30:17;;;;;;;10.77;6.15;;;;;;;;;;5104388;28;20035;-74
2022/05/16 01:32:43;;;;;;;9.50;5.85;;;;;;;;;;5077527;28;20207;-74
2022/05/16 01:35:09;;;;;;;10.23;6.70;;;;;;;;;;5096849;28;20052;-74
2022/05/16 01:40:20;;;;;;;10.50;5.82;;;;;;;;;;5076446;28;20043;-73
2022/05/16 01:42:46;;;;;;;11.38;5.22;;;;;;;;;;5099289;28;20040;-73
2022/05/16 01:45:13;;;;;;;9.48;5.78;;;;;;;;;;5100378;28;20513;-73
2022/05/16 01:47:39;;;;;;;11.85;5.85;;;;;;;;;;5091247;28;20036;-73
2022/05/16 01:50:05;;;;;;;12.70;5.43;;;;;;;;;;5075393;28;20047;-74
2022/05/16 01:52:31;;;;;;;11.00;5.90;;;;;;;;;;5091480;28;20035;-74
2022/05/16 01:54:59;;;;;;;9.38;5.10;;;;;;;;;;5096352;28;20040;-74
2022/05/16 01:57:25;;;;;;;9.75;5.57;;;;;;;;;;5103151;28;20048;-74
2022/05/16 01:59:51;;;;;;;11.60;5.65;;;;;;;;;;5084838;28;20044;-74
2022/05/16 02:02:17;;;;;;;9.43;5.40;;;;;;;;;;5074312;28;20040;-74
2022/05/16 02:04:43;;;;;;;9.30;4.88;;;;;;;;;;5098365;28;20085;-73
2022/05/16 02:07:09;;;;;;;8.95;4.88;;;;;;;;;;5092825;28;20090;-74
2022/05/16 02:09:35;;;;;;;12.50;5.05;;;;;;;;;;5103581;28;20036;-74
2022/05/16 02:12:02;;;;;;;10.20;4.65;;;;;;;;;;5093745;28;20589;-74
2022/05/16 02:14:28;;;;;;;8.57;4.28;;;;;;;;;;5097071;28;20063;-74
2022/05/16 02:16:54;;;;;;;8.85;4.38;;;;;;;;;;5101835;28;20364;-74
2022/05/16 02:19:20;;;;;;;9.60;4.65;;;;;;;;;;5090719;28;20078;-74
2022/05/16 02:24:40;;;;;;;;;;;;;;;;;;5100378;28;20108;-74
2022/05/16 02:27:10;;;;;;;8.98;4.60;;;;;;;;;;5090935;28;19916;-73
2022/05/16 02:29:37;;;;;;;8.00;4.13;;;;;;;;;;5101800;28;20128;-74
2022/05/16 02:32:04;;;;;;;8.23;4.40;;;;;;;;;;5087304;28;20040;-74
2022/05/16 02:34:30;;;;;;;8.95;3.95;;;;;;;;;;5100890;28;20414;-74
2022/05/16 02:36:57;;;;;;;7.15;3.78;;;;;;;;;;5090442;28;20087;-74
2022/05/16 02:39:23;;;;;;;9.50;3.78;;;;;;;;;;5107093;28;20051;-74
2022/05/16 02:41:50;;;;;;;9.30;3.90;;;;;;;;;;5098274;28;20032;-73
2022/05/16 02:44:16;;;;;;;7.25;3.75;;;;;;;;;;5099752;28;20031;-74
2022/05/16 02:46:42;;;;;;;8.60;3.70;;;;;;;;;;5090719;28;20169;-74
2022/05/16 02:49:09;;;;;;;5.80;3.35;;;;;;;;;;5106384;28;20047;-74
2022/05/16 02:51:35;;;;;;;9.23;3.78;;;;;;;;;;5098878;28;20075;-74
2022/05/16 02:54:02;;;;;;;6.93;3.55;;;;;;;;;;5098247;28;20048;-74
2022/05/16 02:56:28;;;;;;;6.47;3.22;;;;;;;;;;5107079;28;20509;-74
2022/05/16 02:58:54;;;;;;;7.60;3.70;;;;;;;;;;5077297;28;20040;-74
2022/05/16 03:01:21;;;;;;;7.65;3.22;;;;;;;;;;5102864;28;20061;-73
2022/05/16 03:03:47;;;;;;;8.85;4.28;;;;;;;;;;5101931;28;20085;-75
2022/05/16 03:06:13;;;;;;;8.10;3.38;;;;;;;;;;5094688;28;20036;-74
2022/05/16 03:08:40;;;;;;;8.35;3.45;;;;;;;;;;5107104;28;20101;-74
2022/05/16 03:11:07;;;;;;;7.63;3.60;;;;;;;;;;5097272;28;20052;-74
2022/05/16 03:13:33;;;;;;;6.28;3.17;;;;;;;;;;5110211;28;20039;-74
2022/05/16 03:16:00;;;;;;;7.32;3.33;;;;;;;;;;5082000;28;20037;-74
2022/05/16 03:18:30;;;;;;;7.00;3.13;;;;;;;;;;5091542;28;20047;-73
2022/05/16 03:20:57;;;;;;;8.20;3.05;;;;;;;;;;5095375;28;20426;-74
2022/05/16 03:23:23;;;;;;;5.60;2.95;;;;;;;;;;5101332;28;20251;-74
2022/05/16 03:25:50;;;;;;;7.88;3.20;;;;;;;;;;5095261;28;20075;-74
2022/05/16 03:28:16;;;;;;;7.47;3.13;;;;;;;;;;5106567;28;20501;-73
2022/05/16 03:30:42;;;;;;;8.13;3.20;;;;;;;;;;5073681;28;20399;-73
2022/05/16 03:33:09;;;;;;;7.30;2.88;;;;;;;;;;5083352;28;20406;-74
2022/05/16 03:35:36;;;;;;;7.88;3.17;;;;;;;;;;5095254;28;20044;-74
2022/05/16 03:38:03;;;;;;;6.82;3.10;;;;;;;;;;5089106;28;20100;-73
2022/05/16 03:40:45;;;;;;;7.18;3.08;;;;;;;;;;5095606;28;20234;-74
2022/05/16 03:43:15;;;;;;;5.70;2.90;;;;;;;;;;5098049;28;20468;-74
2022/05/16 03:45:43;;;;;;;5.95;2.95;;;;;;;;;;5106239;28;20486;-73
2022/05/16 03:48:09;;;;;;;8.18;2.90;;;;;;;;;;5077225;28;20127;-74
2022/05/16 03:50:35;;;;;;;7.38;2.92;;;;;;;;;;5084618;28;20384;-75
2022/05/16 03:53:02;;;;;;;6.88;2.95;;;;;;;;;;5101765;28;20043;-74
2022/05/16 03:55:30;;;;;;;6.15;3.20;;;;;;;;;;5093513;28;20039;-74
2022/05/16 03:57:56;;;;;;;6.03;3.22;;;;;;;;;;5076720;28;20062;-74
2022/05/16 04:00:22;;;;;;;7.22;3.20;;;;;;;;;;5102044;28;20046;-74
2022/05/16 04:02:49;;;;;;;6.20;3.08;;;;;;;;;;5101467;28;20364;-74
2022/05/16 04:05:18;;;;;;;8.75;3.45;;;;;;;;;;5093598;28;20488;-74
2022/05/16 04:07:45;;;;;;;6.35;2.90;;;;;;;;;;5105749;28;20469;-74
2022/05/16 04:10:11;;;;;;;7.60;3.38;;;;;;;;;;5096626;28;20043;-74
2022/05/16 04:12:38;;;;;;;7.72;3.40;;;;;;;;;;5080719;28;20036;-74
2022/05/16 04:15:05;;;;;;;7.50;3.20;;;;;;;;;;5104811;28;20542;-74
2022/05/16 04:17:31;;;;;;;7.65;3.20;;;;;;;;;;5092590;28;20569;-74
2022/05/16 04:19:57;;;;;;;9.50;4.03;;;;;;;;;;5102038;28;20426;-73
2022/05/16 04:22:23;;;;;;;8.55;3.30;;;;;;;;;;5099769;28;20051;-73
2022/05/16 04:24:50;;;;;;;7.65;3.00;;;;;;;;;;5094026;28;20118;-73
2022/05/16 04:27:16;;;;;;;7.38;3.22;;;;;;;;;;5105526;28;20042;-73
2022/05/16 04:29:42;;;;;;;6.68;3.20;;;;;;;;;;5092718;28;20081;-74
2022/05/16 04:32:09;;;;;;;8.70;3.28;;;;;;;;;;5098996;28;20040;-74
2022/05/16 04:34:35;;;;;;;6.82;3.13;;;;;;;;;;5094515;28;20530;-74
2022/05/16 04:37:01;;;;;;;5.53;3.08;;;;;;;;;;5104601;28;20495;-74
2022/05/16 04:39:27;;;;;;;7.70;3.00;;;;;;;;;;5094295;28;20100;-73
2022/05/16 04:44:38;;;;;;;5.60;2.80;;;;;;;;;;5104798;28;20050;-74
2022/05/16 04:47:08;;;;;;;5.95;3.08;;;;;;;;;;5104629;28;20044;-74
2022/05/16 04:49:35;;;;;;;7.22;3.40;;;;;;;;;;5097035;28;20066;-73
2022/05/16 04:52:01;;;;;;;6.68;3.25;;;;;;;;;;5097037;28;20090;-73
2022/05/16 04:54:28;;;;;;;6.63;3.45;;;;;;;;;;5104836;28;20506;-74
2022/05/16 04:56:54;;;;;;;7.63;3.10;;;;;;;;;;5076017;28;20299;-74
2022/05/16 04:59:21;;;;;;;6.43;2.92;;;;;;;;;;5100598;28;20122;-74
2022/05/16 05:01:48;;;;;;;5.70;3.13;;;;;;;;;;5100108;28;20506;-74
2022/05/16 05:04:15;;;;;;;7.82;3.67;;;;;;;;;;5075756;28;20042;-73
2022/05/16 05:06:41;;;;;;;7.85;3.90;;;;;;;;;;5104406;28;20031;-73
2022/05/16 05:09:07;;;;;;;7.80;3.55;;;;;;;;;;5095309;28;20571;-74
2022/05/16 05:14:33;;;;;;;6.93;3.30;;;;;;;;;;5104314;28;20671;-73
2022/05/16 05:16:59;;;;;;;6.80;3.35;;;;;;;;;;5094704;28;20088;-73
2022/05/16 05:19:26;;;;;;;6.25;3.20;;;;;;;;;;5079782;28;20039;-73
2022/05/16 05:21:52;;;;;;;9.00;3.70;;;;;;;;;;5085961;28;20040;-73
2022/05/16 05:24:18;;;;;;;8.80;3.50;;;;;;;;;;5087714;28;20036;-73
2022/05/16 05:26:46;;;;;;;6.65;3.65;;;;;;;;;;5077238;28;20078;-73
2022/05/16 05:29:13;;;;;;;8.80;3.95;;;;;;;;;;5094400;28;20066;-74
2022/05/16 05:31:41;;;;;;;7.18;3.40;;;;;;;;;;5087188;28;20048;-72
2022/05/16 05:34:08;;;;;;;7.32;3.72;;;;;;;;;;5086923;28;20058;-75
2022/05/16 05:36:35;;;;;;;10.02;3.95;;;;;;;;;;5086191;28;20474;-75
2022/05/16 05:39:02;;;;;;;6.40;4.03;;;;;;;;;;5085256;28;20075;-75
2022/05/16 05:41:29;;;;;;;8.68;4.22;;;;;;;;;;5102445;28;20494;-75
2022/05/16 05:43:55;;;;;;;7.47;3.83;;;;;;;;;;5081424;28;20032;-77
2022/05/16 05:46:21;;;;;;;8.00;3.92;;;;;;;;;;5083099;28;20064;-75
2022/05/16 05:48:47;;;;;;;10.35;4.00;;;;;;;;;;5066656;28;20336;-75
2022/05/16 05:51:17;;;;;;;10.13;4.15;;;;;;;;;;5083762;28;20176;-75
2022/05/16 05:53:44;;;;;;;8.48;4.18;;;;;;;;;;5083901;28;20537;-75
2022/05/16 05:56:11;;;;;;;8.10;3.95;;;;;;;;;;5069335;28;20106;-75
2022/05/16 05:58:38;;;;;;;7.93;4.05;;;;;;;;;;5076970;28;20044;-75
2022/05/16 06:01:05;;;;;;;8.60;3.85;;;;;;;;;;5101663;28;20410;-75
2022/05/16 06:03:32;;;;;;;8.38;3.50;;;;;;;;;;5082207;28;20508;-76
2022/05/16 06:05:58;;;;;;;8.35;3.53;;;;;;;;;;5084127;28;20051;-75
2022/05/16 06:08:25;;;;;;;8.77;4.10;;;;;;;;;;5088683;28;20063;-75
2022/05/16 06:10:51;;;;;;;7.75;3.80;;;;;;;;;;5091789;28;20396;-76
2022/05/16 06:13:18;;;;;;;7.18;3.42;;;;;;;;;;5084913;28;20098;-74
2022/05/16 06:15:44;;;;;;;8.30;4.10;;;;;;;;;;5084971;28;20039;-75
2022/05/16 06:18:10;;;;;;;9.38;4.10;;;;;;;;;;5083097;28;20051;-75
2022/05/16 06:20:36;;;;;;;8.88;4.20;;;;;;;;;;5082866;28;20043;-75
2022/05/16 06:23:03;;;;;;;8.93;3.92;;;;;;;;;;5094634;28;20101;-75
2022/05/16 06:25:32;;;;;;;8.88;4.03;;;;;;;;;;5108196;28;20040;-75
2022/05/16 06:27:59;;;;;;;8.63;3.92;;;;;;;;;;5067805;28;20507;-74
2022/05/16 06:30:25;;;;;;;7.70;4.40;;;;;;;;;;5072716;28;20654;-75
2022/05/16 06:32:52;;;;;;;9.40;3.70;;;;;;;;;;5072182;28;20052;-75
2022/05/16 06:35:19;;;;;;;9.55;3.90;;;;;;;;;;5106636;28;20040;-75
2022/05/16 06:37:45;;;;;;;9.07;4.10;;;;;;;;;;5098470;28;20074;-75
2022/05/16 06:40:12;;;;;;;10.52;4.47;;;;;;;;;;5098818;28;20059;-75
2022/05/16 06:42:38;;;;;;;7.82;3.80;;;;;;;;;;5074949;28;20395;-75
2022/05/16 06:45:05;;;;;;;9.88;4.13;;;;;;;;;;5080569;28;20046;-75
2022/05/16 06:47:31;;;;;;;8.23;4.18;;;;;;;;;;5056967;28;20037;-76
2022/05/16 06:49:58;;;;;;;11.63;4.70;;;;;;;;;;5084086;28;20450;-75
2022/05/16 06:52:24;;;;;;;9.80;3.90;;;;;;;;;;5074492;28;20550;-76
2022/05/16 06:54:50;;;;;;;8.30;3.92;;;;;;;;;;5082751;28;20079;-76
2022/05/16 06:57:17;;;;;;;28.13;4.75;;;;;;;;;;5072700;28;20072;-76
2022/05/16 06:59:43;;;;;;;21.52;3.90;;;;;;;;;;5071861;28;20090;-76
2022/05/16 07:02:10;;;;;;;8.90;3.70;;;;;;;;;;5102859;28;20130;-75
2022/05/16 07:04:37;;;;;;;9.50;4.43;;;;;;;;;;5110152;28;20139;-76
2022/05/16 07:07:08;;;;;;;10.00;4.07;;;;;;;;;;5072725;28;20146;-75
2022/05/16 07:09:34;;;;;;;13.02;4.57;;;;;;;;;;5075673;28;20488;-76
2022/05/16 07:12:00;;;;;;;12.40;4.53;;;;;;;;;;5094945;28;20127;-76
2022/05/16 07:14:26;;;;;;;8.98;4.55;;;;;;;;;;5106309;28;20038;-76
2022/05/16 07:16:52;;;;;;;8.27;3.83;;;;;;;;;;5096894;28;20038;-76
2022/05/16 07:19:18;;;;;;;9.68;4.10;;;;;;;;;;5100059;28;20051;-75
2022/05/16 07:21:44;;;;;;;8.77;3.75;;;;;;;;;;5080737;28;20039;-77
2022/05/16 07:24:11;;;;;;;9.05;4.25;;;;;;;;;;5105123;28;20263;-77
2022/05/16 07:29:22;;;;;;;12.95;4.13;;;;;;;;;;5091409;28;20093;-76
2022/05/16 07:31:51;;;;;;;11.00;4.10;;;;;;;;;;5079924;28;20048;-76
2022/05/16 07:34:17;;;;;;;10.55;4.43;;;;;;;;;;5054077;28;20033;-76
2022/05/16 07:36:44;;;;;;;9.00;4.20;;;;;;;;;;5054536;28;20056;-76
2022/05/16 07:39:10;;;;;;;8.75;3.97;;;;;;;;;;5078797;28;20051;-76
2022/05/16 07:41:38;;;;;;;8.25;4.28;;;;;;;;;;5094756;28;20036;-76
2022/05/16 07:44:04;;;;;;;7.97;3.58;;;;;;;;;;5091310;28;20051;-75
2022/05/16 07:46:30;;;;;;;9.05;3.83;;;;;;;;;;5089793;28;20142;-76
2022/05/16 07:48:56;;;;;;;11.40;4.07;;;;;;;;;;5073335;28;20037;-77
2022/05/16 07:51:22;;;;;;;9.55;4.20;;;;;;;;;;5068232;28;20040;-74
2022/05/16 07:53:49;;;;;;;10.90;4.30;;;;;;;;;;5099453;28;20055;-77
2022/05/16 07:56:15;;;;;;;8.93;4.13;;;;;;;;;;5075507;28;20533;-77
2022/05/16 07:58:41;;;;;;;8.45;4.30;;;;;;;;;;5081656;28;20127;-79
2022/05/16 08:01:07;;;;;;;10.13;3.72;;;;;;;;;;5104379;28;20031;-78
2022/05/16 08:03:33;;;;;;;10.05;3.75;;;;;;;;;;5076843;28;20511;-77
2022/05/16 08:05:59;;;;;;;10.95;3.95;;;;;;;;;;5103320;28;20042;-77
2022/05/16 08:11:11;;;;;;;9.57;3.95;;;;;;;;;;5105874;28;20067;-77
2022/05/16 08:13:38;;;;;;;9.27;3.78;;;;;;;;;;5105480;28;20047;-77
2022/05/16 08:16:04;;;;;;;10.75;3.78;;;;;;;;;;5082515;28;20048;-79
2022/05/16 08:18:30;;;;;;;9.77;3.97;;;;;;;;;;5068557;28;20090;-78
2022/05/16 08:20:56;;;;;;;11.32;4.25;;;;;;;;;;5086000;28;20400;-78
2022/05/16 08:23:25;;;;;;;8.77;3.50;;;;;;;;;;5109059;28;20047;-78
2022/05/16 08:25:53;;;;;;;14.15;3.50;;;;;;;;;;5082916;28;20440;-76
2022/05/16 08:28:19;;;;;;;8.80;3.40;;;;;;;;;;5097206;28;20042;-77
2022/05/16 08:30:46;;;;;;;8.82;3.85;;;;;;;;;;5105804;28;20193;-77
2022/05/16 08:33:12;;;;;;;8.07;3.60;;;;;;;;;;5101547;28;20039;-77
2022/05/16 08:35:38;;;;;;;9.85;3.65;;;;;;;;;;5079728;28;20511;-77
2022/05/16 08:40:54;;;;;;;9.82;3.47;;;;;;;;;;5088120;28;20119;-78
2022/05/16 08:43:25;;;;;;;10.23;4.18;;;;;;;;;;5089014;28;20062;-79
2022/05/16 08:45:54;;;;;;;11.35;3.40;;;;;;;;;;5071244;28;20046;-77
2022/05/16 08:48:25;;;;;;;8.57;3.47;;;;;;;;;;5103734;28;20126;-77
2022/05/16 08:51:04;;;;;;;8.75;3.60;;;;;;;;;;5075251;28;20322;-77
2022/05/16 08:53:35;;;;;;;7.75;3.17;;;;;;;;;;5083303;28;20035;-78
2022/05/16 08:56:03;;;;;;;19.02;4.40;;;;;;;;;;5101458;28;20051;-76
2022/05/16 08:58:44;;;;;;;10.30;3.47;;;;;;;;;;5103340;28;20505;-78
2022/05/16 09:01:12;;;;;;;10.02;3.90;;;;;;;;;;5087624;28;20072;-77
2022/05/16 09:03:45;;;;;;;9.15;3.88;;;;;;;;;;5100181;28;20100;-77
2022/05/16 09:06:15;;;;;;;9.88;3.80;;;;;;;;;;5092094;28;20063;-78
2022/05/16 09:08:49;;;;;;;11.35;3.92;;;;;;;;;;5076696;28;20455;-78
2022/05/16 09:11:35;;;;;;;11.63;4.20;;;;;;;;;;5085834;28;20044;-78
2022/05/16 09:14:07;;;;;;;9.07;3.58;;;;;;;;;;5084973;28;20112;-78
2022/05/16 09:16:38;;;;;;;10.68;3.53;;;;;;;;;;5086459;28;20067;-78
2022/05/16 09:19:07;;;;;;;8.90;3.75;;;;;;;;;;5084957;28;20040;-77
2022/05/16 09:21:52;;;;;;;9.60;4.25;;;;;;;;;;5089666;28;20032;-77
2022/05/16 09:24:23;;;;;;;10.63;4.20;;;;;;;;;;5089551;28;20479;-76
2022/05/16 09:27:08;;;;;;;8.55;3.22;;;;;;;;;;5088935;28;20074;-77
2022/05/16 09:29:35;;;;;;;;;;;;;;;;;;5070571;28;20032;-76
2022/05/16 09:32:21;;;;;;;9.02;3.60;;;;;;;;;;5088726;28;19931;-77
2022/05/16 09:34:47;;;;;;;9.00;3.60;;;;;;;;;;5078572;28;20504;-76
2022/05/16 09:37:13;;;;;;;8.73;3.42;;;;;;;;;;5087645;28;20048;-77
2022/05/16 09:39:40;;;;;;;11.32;3.95;;;;;;;;;;5074084;28;20040;-77
2022/05/16 09:42:20;;;;;;;9.88;3.72;;;;;;;;;;5089193;28;20396;-77
2022/05/16 09:44:57;;;;;;;7.85;3.20;;;;;;;;;;5089562;28;20126;-78
2022/05/16 09:47:30;;;;;;;9.77;3.40;;;;;;;;;;5087130;28;20044;-77
2022/05/16 09:50:02;;;;;;;10.70;3.90;;;;;;;;;;5071922;28;20517;-77
2022/05/16 09:52:29;;;;;;;10.25;3.90;;;;;;;;;;5086633;28;20484;-77
2022/05/16 09:55:04;;;;;;;7.65;3.35;;;;;;;;;;5088852;28;20387;-77
2022/05/16 09:57:32;;;;;;;13.50;4.00;;;;;;;;;;5089345;28;20111;-77
2022/05/16 10:00:15;;;;;;;6.70;3.33;;;;;;;;;;5092551;28;20055;-78
2022/05/16 10:02:42;;;;;;;13.75;3.85;;;;;;;;;;5089176;28;20039;-78
2022/05/16 10:05:20;;;;;;;8.63;3.28;;;;;;;;;;5063031;28;20492;-77
2022/05/16 10:07:48;;;;;;;9.05;3.25;;;;;;;;;;5069946;28;20046;-77
2022/05/16 10:10:19;;;;;;;8.63;3.15;;;;;;;;;;5074936;28;20055;-78
2022/05/16 10:12:46;;;;;;;10.65;3.50;;;;;;;;;;5090216;28;20061;-80
2022/05/16 10:15:13;;;;;;;9.25;3.58;;;;;;;;;;5076002;28;20093;-78
2022/05/16 10:17:40;;;;;;;9.57;3.47;;;;;;;;;;5076231;28;20038;-78
2022/05/16 10:20:15;;;;;;;7.35;3.10;;;;;;;;;;5092814;28;20372;-78
2022/05/16 10:22:42;;;;;;;7.55;3.17;;;;;;;;;;5075541;28;20122;-79
2022/05/16 10:25:11;;;;;;;7.28;3.28;;;;;;;;;;5093412;28;20567;-76
2022/05/16 10:27:38;;;;;;;8.80;3.53;;;;;;;;;;5082437;28;20506;-76
2022/05/16 10:30:07;;;;;;;7.43;3.65;;;;;;;;;;5094822;28;20127;-78
2022/05/16 10:35:20;;;;;;;7.95;3.50;;;;;;;;;;5086498;28;20044;-77
2022/05/16 10:37:48;;;;;;;7.30;3.30;;;;;;;;;;5101647;28;20051;-78
2022/05/16 10:40:29;;;;;;;8.10;3.60;;;;;;;;;;5091892;28;20044;-79
2022/05/16 10:43:07;;;;;;;7.93;3.45;;;;;;;;;;5091559;28;20479;-78
2022/05/16 10:45:35;;;;;;;8.20;3.30;;;;;;;;;;5074820;28;20245;-79
2022/05/16 10:48:09;;;;;;;9.63;3.58;;;;;;;;;;5102607;28;20130;-78
2022/05/16 10:50:43;;;;;;;6.93;3.50;;;;;;;;;;5091880;28;20040;-77
2022/05/16 10:53:14;;;;;;;10.10;3.75;;;;;;;;;;5086131;28;20040;-77
2022/05/16 10:55:54;;;;;;;9.23;4.03;;;;;;;;;;5090304;28;20035;-77
2022/05/16 10:58:39;;;;;;;8.52;4.10;;;;;;;;;;5075646;28;20036;-76
2022/05/16 11:01:13;;;;;;;7.38;3.45;;;;;;;;;;5069770;28;20040;-77
2022/05/16 11:03:58;;;;;;;19.08;5.78;;;;;;;;;;5087680;28;20249;-78
2022/05/16 11:06:24;;;;;;;;;;;;;;;;;;5086934;28;20541;-77
2022/05/16 11:09:03;;;;;;;11.23;3.53;;;;;;;;;;5089876;28;19916;-77
2022/05/16 11:11:50;;;;;;;7.22;3.80;;;;;;;;;;5090041;28;20085;-77
2022/05/16 11:14:36;;;;;;;8.73;3.80;;;;;;;;;;5073768;28;20127;-78
2022/05/16 11:17:32;;;;;;;7.88;3.65;;;;;;;;;;5086267;28;20053;-77
2022/05/16 11:20:04;;;;;;;8.40;3.63;;;;;;;;;;5064847;28;20048;-77
2022/05/16 11:22:34;;;;;;;8.68;3.85;;;;;;;;;;5083891;28;20119;-76
2022/05/16 11:25:16;;;;;;;9.07;3.85;;;;;;;;;;5086197;28;20031;-77
2022/05/16 11:28:01;;;;;;;6.57;3.75;;;;;;;;;;5087514;28;20495;-76
2022/05/16 11:30:35;;;;;;;11.88;3.58;;;;;;;;;;5092682;28;20115;-76
2022/05/16 11:33:14;;;;;;;9.35;3.67;;;;;;;;;;5100662;28;20507;-77
2022/05/16 11:35:40;;;;;;;8.77;3.92;;;;;;;;;;5106473;28;20048;-77
2022/05/16 11:38:06;;;;;;;8.27;3.47;;;;;;;;;;5094769;28;20561;-76
2022/05/16 11:40:56;;;;;;;7.93;3.58;;;;;;;;;;5085766;28;20040;-77
2022/05/16 11:43:24;;;;;;;9.35;4.75;;;;;;;;;;5105322;28;20090;-76
2022/05/16 11:46:08;;;;;;;14.40;4.68;;;;;;;;;;5093352;28;20043;-76
2022/05/16 11:48:40;;;;;;;9.68;3.90;;;;;;;;;;5090142;28;20044;-76
2022/05/16 11:51:27;;;;;;;7.90;3.33;;;;;;;;;;5076712;28;20723;-76
2022/05/16 11:53:58;;;;;;;6.25;3.80;;;;;;;;;;5089857;28;20043;-77
2022/05/16 12:02:13;;;;;;;12.65;4.28;;;;;;;;;;5087897;28;20127;-76
2022/05/16 12:04:41;;;;;;;8.00;4.30;;;;;;;;;;5072956;28;20032;-76
2022/05/16 12:07:15;;;;;;;7.65;4.03;;;;;;;;;;5090514;28;20104;-76
2022/05/16 12:09:58;;;;;;;9.40;4.05;;;;;;;;;;5088556;28;20040;-76
2022/05/16 12:12:34;;;;;;;8.10;4.00;;;;;;;;;;5072242;28;20083;-76
2022/05/16 12:15:19;;;;;;;9.13;3.92;;;;;;;;;;5071416;28;20093;-76
2022/05/16 12:17:55;;;;;;;8.10;4.20;;;;;;;;;;5070777;28;20097;-76
2022/05/16 12:20:40;;;;;;;8.27;4.45;;;;;;;;;;5077123;28;20043;-76
2022/05/16 12:23:06;;;;;;;;;;;;;;;;;;5087699;28;20035;-76
2022/05/16 12:25:35;;;;;;;8.65;4.57;;;;;;;;;;5088782;28;19923;-76
2022/05/16 12:28:30;;;;;;;8.15;4.35;;;;;;;;;;5090920;28;20040;-76
2022/05/16 12:30:56;;;;;;;;;;;;;;;;;;5088726;28;20054;-76
2022/05/16 12:33:49;;;;;;;9.35;4.20;;;;;;;;;;5095149;28;19915;-76
2022/05/16 12:36:25;;;;;;;8.82;4.47;;;;;;;;;;5069171;28;20052;-76
2022/05/16 12:38:58;;;;;;;8.43;4.47;;;;;;;;;;5075772;28;20036;-76
2022/05/16 12:41:44;;;;;;;9.00;4.75;;;;;;;;;;5079866;28;20403;-76
2022/05/16 12:44:13;;;;;;;8.90;4.53;;;;;;;;;;5098976;28;20039;-76
2022/05/16 12:47:04;;;;;;;9.52;4.75;;;;;;;;;;5089265;28;20074;-76
2022/05/16 12:49:44;;;;;;;9.60;5.22;;;;;;;;;;5081187;28;20039;-76
2022/05/16 12:52:16;;;;;;;10.02;4.70;;;;;;;;;;5089740;28;20549;-76
2022/05/16 12:55:01;;;;;;;11.52;4.90;;;;;;;;;;5076105;28;20489;-76
2022/05/16 12:57:33;;;;;;;10.73;4.70;;;;;;;;;;5095569;28;20062;-76
2022/05/16 13:00:07;;;;;;;9.75;4.45;;;;;;;;;;5088898;28;20058;-76
2022/05/16 13:02:46;;;;;;;10.18;5.40;;;;;;;;;;5097237;28;20039;-76
2022/05/16 13:05:19;;;;;;;8.95;5.25;;;;;;;;;;5085586;28;20040;-76
2022/05/16 13:07:45;;;;;;;10.05;5.00;;;;;;;;;;5095346;28;20044;-77
2022/05/16 13:10:26;;;;;;;9.82;5.05;;;;;;;;;;5073427;28;20036;-77
2022/05/16 13:13:02;;;;;;;13.77;7.13;;;;;;;;;;5087778;28;20028;-77
2022/05/16 13:15:34;;;;;;;14.48;6.28;;;;;;;;;;5084185;28;20039;-76
2022/05/16 13:18:01;;;;;;;12.18;5.30;;;;;;;;;;5088440;28;20062;-77
2022/05/16 13:20:32;;;;;;;12.05;5.90;;;;;;;;;;5088347;28;20039;-76
2022/05/16 13:22:59;;;;;;;9.57;5.45;;;;;;;;;;5069186;28;20047;-77
2022/05/16 13:25:26;;;;;;;9.35;5.20;;;;;;;;;;5101788;28;20046;-76
2022/05/16 13:30:37;;;;;;;12.95;5.70;;;;;;;;;;5101621;28;20057;-76
2022/05/16 13:33:03;;;;;;;10.60;5.50;;;;;;;;;;5099579;28;20044;-77
2022/05/16 13:35:35;;;;;;;11.25;5.68;;;;;;;;;;5092387;28;20036;-77
2022/05/16 13:38:01;;;;;;;9.27;5.40;;;;;;;;;;5090751;28;20491;-77
2022/05/16 13:40:37;;;;;;;11.90;5.80;;;;;;;;;;5100977;28;20122;-76
2022/05/16 13:43:14;;;;;;;10.35;5.72;;;;;;;;;;5083515;28;20538;-77
2022/05/16 13:45:41;;;;;;;10.32;5.55;;;;;;;;;;5074672;28;20039;-77
2022/05/16 13:48:09;;;;;;;12.82;5.82;;;;;;;;;;5102519;28;20044;-76
2022/05/16 13:50:36;;;;;;;9.77;5.57;;;;;;;;;;5087662;28;20051;-77
2022/05/16 13:53:02;;;;;;;11.38;5.38;;;;;;;;;;5102196;28;20062;-76
2022/05/16 13:55:30;;;;;;;10.55;5.65;;;;;;;;;;5091838;28;20039;-75
2022/05/16 13:57:57;;;;;;;9.43;5.15;;;;;;;;;;5085860;28;20127;-76
2022/05/16 14:00:33;;;;;;;10.15;4.90;;;;;;;;;;5096127;28;20131;-76
2022/05/16 14:03:01;;;;;;;8.70;5.75;;;;;;;;;;5092334;28;20089;-76
2022/05/16 14:05:43;;;;;;;8.57;4.85;;;;;;;;;;5089489;28;20040;-76
2022/05/16 14:08:28;;;;;;;7.38;4.55;;;;;;;;;;5098344;28;20426;-76
2022/05/16 14:10:55;;;;;;;;;;;;;;;;;;5084824;28;20048;-76
2022/05/16 14:13:24;;;;;;;7.45;4.30;;;;;;;;;;5073071;28;20231;-76
2022/05/16 14:15:52;;;;;;;7.32;4.35;;;;;;;;;;5099611;28;20108;-77
2022/05/16 14:18:22;;;;;;;7.55;4.32;;;;;;;;;;5076111;28;20145;-77
2022/05/16 14:20:48;;;;;;;8.57;5.00;;;;;;;;;;5088924;28;20040;-79
2022/05/16 14:23:17;;;;;;;10.13;5.35;;;;;;;;;;5101555;28;20380;-77
2022/05/16 14:25:45;;;;;;;11.57;6.05;;;;;;;;;;5076048;28;20040;-77
2022/05/16 14:28:20;;;;;;;9.63;5.13;;;;;;;;;;5076683;28;20407;-76
2022/05/16 14:31:09;;;;;;;10.85;5.47;;;;;;;;;;5071551;28;20372;-77
2022/05/16 14:33:37;;;;;;;10.27;5.68;;;;;;;;;;5079865;28;20048;-77
2022/05/16 14:36:05;;;;;;;12.82;6.57;;;;;;;;;;5096432;28;20158;-78
2022/05/16 14:38:41;;;;;;;11.73;6.53;;;;;;;;;;5088801;28;20036;-79
2022/05/16 14:41:13;;;;;;;10.88;5.90;;;;;;;;;;5073530;28;20040;-77
2022/05/16 14:43:40;;;;;;;10.45;6.32;;;;;;;;;;5096330;28;20529;-77
2022/05/16 14:48:55;;;;;;;11.73;6.47;;;;;;;;;;5076231;28;20040;-76
2022/05/16 14:51:24;;;;;;;9.35;6.60;;;;;;;;;;5100362;28;20044;-76
2022/05/16 14:53:51;;;;;;;11.35;7.32;;;;;;;;;;5101057;28;20071;-77
2022/05/16 14:56:18;;;;;;;11.52;7.15;;;;;;;;;;5091453;28;20048;-76
2022/05/16 14:58:44;;;;;;;12.63;9.57;;;;;;;;;;5105359;28;20040;-77
2022/05/16 15:04:04;;;;;;;10.52;5.65;;;;;;;;;;5111516;28;20117;-77
2022/05/16 15:06:32;;;;;;;9.77;6.72;;;;;;;;;;5077705;28;20042;-78
2022/05/16 15:08:59;;;;;;;12.13;9.07;;;;;;;;;;5110542;28;20039;-77
2022/05/16 15:11:28;;;;;;;13.82;9.55;;;;;;;;;;5082276;28;20043;-78
2022/05/16 15:13:54;;;;;;;13.60;9.00;;;;;;;;;;5087441;28;20058;-78
2022/05/16 15:16:21;;;;;;;12.85;8.88;;;;;;;;;;5074800;28;20039;-78
2022/05/16 15:18:47;;;;;;;13.10;8.40;;;;;;;;;;5080637;28;20523;-78
2022/05/16 15:21:15;;;;;;;14.77;9.55;;;;;;;;;;5098927;28;20664;-79
2022/05/16 15:23:43;;;;;;;16.33;10.60;;;;;;;;;;5092285;28;20048;-78
2022/05/16 15:26:10;;;;;;;15.20;9.68;;;;;;;;;;5094302;28;20066;-79
2022/05/16 15:28:36;;;;;;;14.48;10.68;;;;;;;;;;5084414;28;20177;-78
2022/05/16 15:31:03;;;;;;;17.20;10.73;;;;;;;;;;5069660;28;20363;-76
2022/05/16 15:33:29;;;;;;;20.48;15.27;;;;;;;;;;5087063;28;20033;-75